createdAt,value
2022-12-31T10:28:38.947Z,102423.78
2022-12-31T10:31:40.832Z,102430.59
2022-12-31T10:34:24.411Z,102416.66
2022-12-31T10:36:55.038Z,102415.91
2022-12-31T10:39:56.809Z,102430.00
2022-12-31T10:42:52.489Z,102424.22
2022-12-31T10:45:46.351Z,102428.72
2022-12-31T10:49:15.334Z,102423.97
2022-12-31T10:51:51.545Z,102420.13
2022-12-31T10:54:39.341Z,102416.25
2022-12-31T10:57:39.812Z,102413.88
2022-12-31T11:00:14.116Z,102418.66
2022-12-31T11:03:29.760Z,102406.47
2022-12-31T11:06:51.960Z,102417.63
2022-12-31T11:09:40.976Z,102419.75
2022-12-31T11:12:41.571Z,102411.81
2022-12-31T11:15:56.369Z,102403.63
2022-12-31T11:18:34.761Z,102407.31
2022-12-31T11:21:28.631Z,102401.38
2022-12-31T11:24:30.243Z,102403.78
2022-12-31T11:27:19.364Z,102405.31
2022-12-31T11:30:27.207Z,102403.72
2022-12-31T11:33:24.228Z,102413.06
2022-12-31T11:36:19.260Z,102416.50
2022-12-31T11:39:13.499Z,102419.41
2022-12-31T11:42:04.263Z,102405.50
2022-12-31T11:44:48.109Z,102400.16
2022-12-31T11:47:44.745Z,102411.78
2022-12-31T11:50:35.151Z,102422.56
2022-12-31T11:53:58.733Z,102416.47
2022-12-31T11:56:46.726Z,102425.78
2022-12-31T11:59:19.855Z,102435.88
2022-12-31T12:02:16.481Z,102435.19
2022-12-31T12:04:52.452Z,102438.91
2022-12-31T12:07:24.771Z,102430.16
2022-12-31T12:10:04.078Z,102429.59
2022-12-31T12:12:46.397Z,102436.00
2022-12-31T12:15:38.673Z,102447.13
2022-12-31T12:18:25.821Z,102442.47
2022-12-31T12:21:25.558Z,102442.31
2022-12-31T12:24:08.058Z,102439.34
2022-12-31T12:26:45.867Z,102445.97
2022-12-31T12:29:41.846Z,102450.44
2022-12-31T12:32:34.728Z,102457.28
2022-12-31T12:35:17.468Z,102442.28
2022-12-31T12:37:58.118Z,102434.94
2022-12-31T12:40:34.086Z,102452.00
2022-12-31T12:43:07.123Z,102449.25
2022-12-31T12:45:52.021Z,102436.16
2022-12-31T12:48:50.458Z,102430.47
2022-12-31T12:52:09.235Z,102436.28
2022-12-31T12:55:14.898Z,102445.44
2022-12-31T12:58:29.349Z,102454.28
2022-12-31T13:01:52.525Z,102459.53
2022-12-31T13:04:39.520Z,102470.59
2022-12-31T13:07:18.260Z,102470.41
2022-12-31T13:10:16.465Z,102472.34
2022-12-31T13:16:16.979Z,102464.00
2022-12-31T13:19:31.056Z,102485.19
2022-12-31T13:22:25.939Z,102480.81
2022-12-31T13:25:12.360Z,102484.41
2022-12-31T13:27:52.818Z,102483.41
2022-12-31T13:30:52.744Z,102480.59
2022-12-31T13:33:28.163Z,102486.38
2022-12-31T13:36:05.733Z,102485.97
2022-12-31T13:38:46.337Z,102483.22
2022-12-31T13:41:49.910Z,102491.44
2022-12-31T13:44:48.103Z,102485.66
2022-12-31T13:47:33.851Z,102482.78
2022-12-31T13:50:36.901Z,102497.91
2022-12-31T13:53:17.022Z,102492.88
2022-12-31T13:55:56.716Z,102489.06
2022-12-31T13:58:46.920Z,102493.97
2022-12-31T14:01:37.213Z,102506.78
2022-12-31T14:04:17.824Z,102489.97
2022-12-31T14:07:05.587Z,102502.63
2022-12-31T14:09:38.168Z,102497.44
2022-12-31T14:12:46.864Z,102508.50
2022-12-31T14:15:39.380Z,102518.81
2022-12-31T14:18:13.693Z,102518.00
2022-12-31T14:20:55.769Z,102521.09
2022-12-31T14:23:42.708Z,102531.91
2022-12-31T14:26:33.810Z,102536.06
2022-12-31T14:29:40.384Z,102536.47
2022-12-31T14:32:46.594Z,102538.56
2022-12-31T14:35:23.260Z,102530.84
2022-12-31T14:38:06.172Z,102540.56
2022-12-31T14:41:15.812Z,102533.22
2022-12-31T14:44:12.784Z,102533.91
2022-12-31T14:47:17.671Z,102538.34
2022-12-31T14:50:35.227Z,102533.63
2022-12-31T14:53:58.572Z,102526.72
2022-12-31T14:56:52.099Z,102523.66
2022-12-31T14:59:25.594Z,102539.00
2022-12-31T15:02:06.130Z,102522.84
2022-12-31T15:04:46.780Z,102523.84
2022-12-31T15:07:44.492Z,102527.38
2022-12-31T15:10:58.279Z,102530.22
2022-12-31T15:13:54.248Z,102536.75
2022-12-31T15:16:44.886Z,102539.75
2022-12-31T15:19:52.262Z,102542.91
2022-12-31T15:22:49.345Z,102549.25
2022-12-31T15:25:41.451Z,102555.16
2022-12-31T15:28:34.575Z,102565.41
2022-12-31T15:31:15.941Z,102565.09
2022-12-31T15:34:07.408Z,102562.41
2022-12-31T15:36:53.716Z,102556.06
2022-12-31T15:39:41.590Z,102550.72
2022-12-31T15:42:38.615Z,102560.34
2022-12-31T15:45:38.432Z,102566.59
2022-12-31T15:48:17.751Z,102567.50
2022-12-31T15:50:46.856Z,102556.63
2022-12-31T15:53:44.142Z,102557.16
2022-12-31T15:56:38.712Z,102553.94
2022-12-31T15:59:13.482Z,102560.34
2022-12-31T16:01:43.748Z,102561.19
2022-12-31T16:04:20.730Z,102564.72
2022-12-31T16:06:51.127Z,102567.56
2022-12-31T16:09:30.700Z,102561.09
2022-12-31T16:11:59.939Z,102560.13
2022-12-31T16:14:37.782Z,102557.47
2022-12-31T16:17:06.914Z,102559.56
2022-12-31T16:19:46.503Z,102561.38
2022-12-31T16:22:18.404Z,102566.22
2022-12-31T16:27:45.828Z,102565.19
2022-12-31T16:30:23.695Z,102566.63
2022-12-31T16:32:54.140Z,102564.13
2022-12-31T16:35:29.007Z,102559.75
2022-12-31T16:38:12.831Z,102563.00
2022-12-31T16:40:43.599Z,102558.22
2022-12-31T16:43:37.533Z,102544.72
2022-12-31T16:46:15.402Z,102546.25
2022-12-31T16:48:48.877Z,102550.44
2022-12-31T16:51:21.446Z,102549.47
2022-12-31T16:53:50.362Z,102550.03
2022-12-31T16:56:29.883Z,102549.25
2022-12-31T16:59:05.118Z,102547.72
2022-12-31T17:01:35.892Z,102547.91
2022-12-31T17:04:11.395Z,102560.81
2022-12-31T17:06:39.469Z,102556.41
2022-12-31T17:09:21.535Z,102564.59
2022-12-31T17:11:57.510Z,102574.31
2022-12-31T17:15:06.179Z,102576.78
2022-12-31T17:17:38.200Z,102578.00
2022-12-31T17:20:11.514Z,102583.09
2022-12-31T17:22:44.457Z,102579.28
2022-12-31T17:25:23.662Z,102579.66
2022-12-31T17:28:05.936Z,102582.31
2022-12-31T17:30:34.839Z,102587.31
2022-12-31T17:33:03.320Z,102584.22
2022-12-31T17:35:45.275Z,102581.28
2022-12-31T17:38:40.499Z,102568.75
2022-12-31T17:41:18.436Z,102574.81
2022-12-31T17:43:52.910Z,102572.53
2022-12-31T17:46:29.541Z,102586.31
2022-12-31T17:49:03.008Z,102580.78
2022-12-31T17:51:47.932Z,102581.47
2022-12-31T17:54:21.791Z,102581.16
2022-12-31T17:56:51.810Z,102585.47
2022-12-31T17:59:29.947Z,102585.69
2022-12-31T18:02:01.558Z,102587.41
2022-12-31T18:04:30.513Z,102580.28
2022-12-31T18:06:58.444Z,102582.03
2022-12-31T18:09:26.431Z,102576.97
2022-12-31T18:11:59.707Z,102585.47
2022-12-31T18:14:29.401Z,102578.19
2022-12-31T18:16:57.290Z,102575.31
2022-12-31T18:19:54.415Z,102591.63
2022-12-31T18:22:16.619Z,102588.81
2022-12-31T18:24:45.146Z,102590.75
2022-12-31T18:27:18.583Z,102594.50
2022-12-31T18:29:48.174Z,102595.72
2022-12-31T18:32:28.805Z,102603.31
2022-12-31T18:34:56.696Z,102597.53
2022-12-31T18:37:25.803Z,102595.47
2022-12-31T18:39:53.783Z,102593.69
2022-12-31T18:42:26.203Z,102596.84
2022-12-31T18:44:54.556Z,102600.75
2022-12-31T18:47:23.503Z,102616.53
2022-12-31T18:49:51.553Z,102604.97
2022-12-31T18:52:21.980Z,102601.41
2022-12-31T18:54:50.162Z,102598.81
2022-12-31T18:57:17.892Z,102600.78
2022-12-31T18:59:46.075Z,102598.75
2022-12-31T19:02:19.725Z,102600.00
2022-12-31T19:04:48.825Z,102583.22
2022-12-31T19:07:16.833Z,102580.56
2022-12-31T19:09:46.295Z,102586.16
2022-12-31T19:12:15.465Z,102579.41
2022-12-31T19:14:43.558Z,102576.44
2022-12-31T19:19:38.150Z,102574.28
2022-12-31T19:22:05.984Z,102563.72
2022-12-31T19:24:35.546Z,102578.66
2022-12-31T19:27:03.593Z,102577.88
2022-12-31T19:29:31.538Z,102572.00
2022-12-31T19:32:01.437Z,102578.22
2022-12-31T19:34:29.967Z,102592.84
2022-12-31T19:36:58.436Z,102603.09
2022-12-31T19:39:29.036Z,102592.47
2022-12-31T19:41:59.413Z,102582.63
2022-12-31T19:44:27.491Z,102580.31
2022-12-31T19:46:55.289Z,102583.22
2022-12-31T19:49:23.663Z,102579.38
2022-12-31T19:51:51.381Z,102573.19
2022-12-31T19:54:19.570Z,102572.94
2022-12-31T19:56:47.796Z,102579.59
2022-12-31T19:59:15.849Z,102576.00
2022-12-31T20:01:43.800Z,102571.94
2022-12-31T20:04:11.646Z,102561.53
2022-12-31T20:06:42.469Z,102558.34
2022-12-31T20:09:11.860Z,102570.00
2022-12-31T20:11:39.507Z,102570.63
2022-12-31T20:14:07.143Z,102572.00
2022-12-31T20:16:35.326Z,102569.50
2022-12-31T20:19:03.584Z,102563.19
2022-12-31T20:21:32.126Z,102573.97
2022-12-31T20:24:00.048Z,102574.13
2022-12-31T20:26:27.996Z,102574.91
2022-12-31T20:28:55.956Z,102553.03
2022-12-31T20:31:25.703Z,102552.28
2022-12-31T20:33:54.854Z,102564.03
2022-12-31T20:36:23.812Z,102569.84
2022-12-31T20:38:52.002Z,102571.41
2022-12-31T20:41:22.334Z,102566.84
2022-12-31T20:43:50.259Z,102558.19
2022-12-31T20:46:25.204Z,102575.94
2022-12-31T20:48:55.830Z,102592.13
2022-12-31T20:51:25.395Z,102596.56
2022-12-31T20:53:58.059Z,102594.53
2022-12-31T20:56:28.188Z,102574.47
2022-12-31T20:58:56.828Z,102565.13
2022-12-31T21:01:32.196Z,102573.09
2022-12-31T21:04:13.932Z,102580.47
2022-12-31T21:06:42.118Z,102585.94
2022-12-31T21:09:10.410Z,102593.34
2022-12-31T21:11:57.377Z,102595.22
2022-12-31T21:14:25.091Z,102596.34
2022-12-31T21:16:53.517Z,102596.09
2022-12-31T21:19:21.295Z,102595.72
2022-12-31T21:21:50.058Z,102585.09
2022-12-31T21:24:23.523Z,102593.59
2022-12-31T21:26:56.123Z,102578.41
2022-12-31T21:29:24.119Z,102570.53
2022-12-31T21:31:52.088Z,102587.84
2022-12-31T21:34:21.607Z,102586.81
2022-12-31T21:36:50.050Z,102575.69
2022-12-31T21:39:19.059Z,102579.28
2022-12-31T21:41:52.874Z,102586.41
2022-12-31T21:44:26.186Z,102575.06
2022-12-31T21:47:42.505Z,102576.78
2022-12-31T21:50:10.464Z,102564.69
2022-12-31T21:52:38.208Z,102547.56
2022-12-31T21:55:25.541Z,102542.94
2022-12-31T21:58:25.356Z,102526.41
2022-12-31T22:01:00.407Z,102524.38
2022-12-31T22:03:29.024Z,102522.94
2022-12-31T22:06:01.491Z,102524.56
2022-12-31T22:08:30.813Z,102511.50
2022-12-31T22:11:14.100Z,102504.47
2022-12-31T22:13:43.322Z,102512.66
2022-12-31T22:16:13.305Z,102515.97
2022-12-31T22:18:43.277Z,102510.31
2022-12-31T22:21:19.551Z,102516.03
2022-12-31T22:23:52.375Z,102510.88
2022-12-31T22:26:24.456Z,102517.19
2022-12-31T22:28:53.194Z,102529.38
2022-12-31T22:31:26.998Z,102537.25
2022-12-31T22:33:54.948Z,102546.84
2022-12-31T22:36:24.665Z,102540.22
2022-12-31T22:38:57.532Z,102543.97
2022-12-31T22:41:27.082Z,102549.09
2022-12-31T22:44:03.228Z,102554.44
2022-12-31T22:46:32.722Z,102561.63
2022-12-31T22:49:02.553Z,102559.28
2022-12-31T22:51:56.670Z,102542.81
2022-12-31T22:54:20.091Z,102542.66
2022-12-31T22:56:47.945Z,102542.56
2022-12-31T22:59:15.905Z,102542.06
2022-12-31T23:01:44.309Z,102539.97
2022-12-31T23:04:12.843Z,102543.94
2022-12-31T23:06:46.433Z,102549.09
2022-12-31T23:09:35.837Z,102543.47
2022-12-31T23:12:05.879Z,102554.88
2022-12-31T23:14:52.651Z,102560.06
2022-12-31T23:17:45.174Z,102549.69
2022-12-31T23:20:35.189Z,102539.03
2022-12-31T23:23:09.951Z,102533.91
2022-12-31T23:25:44.268Z,102533.22
2022-12-31T23:28:18.655Z,102520.00
2022-12-31T23:30:48.733Z,102524.78
2022-12-31T23:33:19.797Z,102514.19
2022-12-31T23:35:48.782Z,102518.69
2022-12-31T23:38:18.707Z,102518.22
2022-12-31T23:40:46.519Z,102530.69
2022-12-31T23:43:21.862Z,102533.34
2022-12-31T23:45:53.510Z,102521.56
2022-12-31T23:48:22.107Z,102533.66
2022-12-31T23:50:53.845Z,102533.13
2022-12-31T23:53:25.810Z,102538.22
2022-12-31T23:55:53.921Z,102529.88
2022-12-31T23:58:22.511Z,102529.50
